Time;durP1;ratioP1;P1;durP2;ratioP2;P2;SDS_P1;SDS_P2;PMS_P1;PMS_P2;Temp;Humidity;BMP_temperature;BMP_pressure;BME280_temperature;BME280_humidity;BME280_pressure;Samples;Min_cycle;Max_cycle;Signal;HPM_P1;HPM_P2
2023/05/01 02:00:57;;;;;;;14.77;6.12;;;;;;;;;;4809704;27;20090;-71
2023/05/01 02:03:25;;;;;;;11.12;5.37;;;;;;;;;;4306516;33;20051;-71
2023/05/01 02:05:53;;;;;;;11.05;5.80;;;;;;;;;;4308692;33;20073;-72
2023/05/01 02:08:20;;;;;;;19.00;6.45;;;;;;;;;;4308502;33;20049;-71
2023/05/01 02:10:47;;;;;;;17.70;5.60;;;;;;;;;;4308227;33;20141;-72
2023/05/01 02:13:14;;;;;;;16.15;6.07;;;;;;;;;;4292002;33;20061;-73
2023/05/01 02:15:41;;;;;;;12.85;5.37;;;;;;;;;;4280222;33;20061;-72
2023/05/01 02:18:07;;;;;;;16.90;6.10;;;;;;;;;;4293372;33;20057;-72
2023/05/01 02:20:34;;;;;;;18.75;6.40;;;;;;;;;;4279673;33;20168;-72
2023/05/01 02:23:01;;;;;;;14.60;6.43;;;;;;;;;;4278865;33;20053;-74
2023/05/01 02:25:30;;;;;;;13.82;4.62;;;;;;;;;;4277388;33;20506;-72
2023/05/01 02:27:59;;;;;;;20.60;6.22;;;;;;;;;;4279349;33;20046;-73
2023/05/01 02:30:25;;;;;;;15.05;6.68;;;;;;;;;;4279451;33;20428;-72
2023/05/01 02:32:52;;;;;;;18.75;6.87;;;;;;;;;;4285112;33;20044;-72
2023/05/01 02:35:17;;;;;;;15.68;6.53;;;;;;;;;;4276697;33;20221;-72
2023/05/01 02:37:44;;;;;;;15.25;6.12;;;;;;;;;;4279434;33;20053;-72
2023/05/01 02:40:11;;;;;;;11.48;5.95;;;;;;;;;;4278963;33;20143;-72
2023/05/01 02:42:38;;;;;;;23.12;7.97;;;;;;;;;;4264132;33;20099;-72
2023/05/01 02:45:07;;;;;;;20.50;6.12;;;;;;;;;;4263586;33;20030;-72
2023/05/01 02:47:36;;;;;;;30.48;6.90;;;;;;;;;;4262185;33;20034;-72
2023/05/01 02:50:03;;;;;;;14.90;5.95;;;;;;;;;;4264072;33;20444;-72
2023/05/01 02:52:30;;;;;;;12.80;6.12;;;;;;;;;;4264952;33;20053;-71
2023/05/01 02:54:58;;;;;;;13.43;6.12;;;;;;;;;;4264696;33;20143;-71
2023/05/01 02:57:24;;;;;;;12.48;5.70;;;;;;;;;;4262534;33;20058;-72
2023/05/01 02:59:50;;;;;;;15.40;6.25;;;;;;;;;;4265013;33;20057;-71
2023/05/01 03:02:17;;;;;;;15.88;6.18;;;;;;;;;;4264041;33;20075;-71
2023/05/01 03:04:43;;;;;;;16.87;5.55;;;;;;;;;;4264719;33;20050;-71
2023/05/01 03:07:09;;;;;;;12.70;5.72;;;;;;;;;;4263469;33;20050;-71
2023/05/01 03:09:35;;;;;;;11.25;5.97;;;;;;;;;;4247031;33;20385;-71
2023/05/01 03:12:02;;;;;;;15.18;5.68;;;;;;;;;;4252978;33;20071;-72
2023/05/01 03:14:28;;;;;;;13.25;5.20;;;;;;;;;;4276232;33;20100;-72
2023/05/01 03:16:55;;;;;;;14.93;6.12;;;;;;;;;;4277138;33;20037;-71
2023/05/01 03:19:21;;;;;;;12.20;6.03;;;;;;;;;;4291297;33;20037;-72
2023/05/01 03:21:47;;;;;;;16.98;6.40;;;;;;;;;;4277316;33;20639;-72
2023/05/01 03:24:13;;;;;;;14.35;5.90;;;;;;;;;;4303905;33;20041;-72
2023/05/01 03:26:40;;;;;;;24.33;6.47;;;;;;;;;;4300205;33;20056;-71
2023/05/01 03:29:06;;;;;;;18.35;6.05;;;;;;;;;;4293606;33;20076;-72
2023/05/01 03:31:33;;;;;;;11.75;5.15;;;;;;;;;;4290324;33;20057;-73
2023/05/01 03:33:59;;;;;;;15.80;6.37;;;;;;;;;;4278373;33;20067;-72
2023/05/01 03:36:27;;;;;;;14.63;6.28;;;;;;;;;;4278176;33;20091;-72
2023/05/01 03:38:54;;;;;;;10.90;5.53;;;;;;;;;;4277160;33;20203;-72
2023/05/01 03:41:24;;;;;;;9.45;5.62;;;;;;;;;;4248157;33;20042;-73
2023/05/01 03:43:55;;;;;;;12.43;6.43;;;;;;;;;;4245119;33;20034;-72
2023/05/01 03:46:24;;;;;;;22.77;6.68;;;;;;;;;;4259738;33;20433;-72
2023/05/01 03:48:50;;;;;;;17.58;7.40;;;;;;;;;;4258361;33;20170;-72
2023/05/01 03:51:25;;;;;;;15.68;6.72;;;;;;;;;;4243730;33;20204;-74
2023/05/01 03:53:55;;;;;;;13.43;6.03;;;;;;;;;;4247902;33;20487;-72
2023/05/01 03:56:24;;;;;;;19.45;5.85;;;;;;;;;;4243287;33;20058;-71
2023/05/01 03:58:51;;;;;;;19.92;6.55;;;;;;;;;;4243964;33;20046;-72
2023/05/01 04:01:18;;;;;;;15.02;5.87;;;;;;;;;;4242870;33;20108;-72
2023/05/01 04:03:45;;;;;;;22.67;5.87;;;;;;;;;;4215394;33;20434;-73
2023/05/01 04:06:18;;;;;;;14.65;5.62;;;;;;;;;;4229052;33;20059;-73
2023/05/01 04:08:44;;;;;;;15.38;6.40;;;;;;;;;;4229831;33;20492;-73
2023/05/01 04:11:11;;;;;;;13.20;5.22;;;;;;;;;;4231166;33;20054;-72
2023/05/01 04:13:37;;;;;;;15.23;5.78;;;;;;;;;;4253701;33;20146;-74
2023/05/01 04:16:03;;;;;;;17.95;7.22;;;;;;;;;;4257132;33;20067;-73
2023/05/01 04:18:30;;;;;;;13.15;6.68;;;;;;;;;;4252295;33;20629;-72
2023/05/01 04:20:57;;;;;;;18.83;6.12;;;;;;;;;;4255639;33;20079;-72
2023/05/01 04:23:24;;;;;;;14.23;5.10;;;;;;;;;;4246132;33;20098;-72
2023/05/01 04:25:50;;;;;;;9.90;4.95;;;;;;;;;;4242559;33;20081;-74
2023/05/01 04:28:17;;;;;;;13.43;5.68;;;;;;;;;;4262482;33;20120;-71
2023/05/01 04:30:43;;;;;;;13.57;6.15;;;;;;;;;;4265638;33;20067;-72
2023/05/01 04:33:12;;;;;;;14.80;6.03;;;;;;;;;;4271870;33;20381;-71
2023/05/01 04:35:39;;;;;;;16.35;6.15;;;;;;;;;;4296838;33;20093;-71
2023/05/01 04:38:06;;;;;;;10.25;5.35;;;;;;;;;;4301794;33;20066;-74
2023/05/01 04:40:33;;;;;;;11.02;5.50;;;;;;;;;;4303801;33;20074;-72
2023/05/01 04:43:05;;;;;;;14.93;5.75;;;;;;;;;;4303238;33;20067;-72
2023/05/01 04:45:32;;;;;;;17.75;5.90;;;;;;;;;;4307285;33;20057;-72
2023/05/01 04:47:58;;;;;;;12.45;5.65;;;;;;;;;;4297512;33;20494;-74
2023/05/01 04:50:25;;;;;;;12.65;5.70;;;;;;;;;;4310391;33;20520;-72
2023/05/01 04:52:52;;;;;;;29.67;6.47;;;;;;;;;;4312163;33;20458;-73
2023/05/01 04:55:18;;;;;;;15.55;5.60;;;;;;;;;;4294631;33;20873;-72
2023/05/01 04:57:45;;;;;;;14.30;6.00;;;;;;;;;;4290484;33;20094;-73
2023/05/01 05:00:12;;;;;;;16.00;5.00;;;;;;;;;;4291138;33;20041;-74
2023/05/01 05:02:39;;;;;;;13.82;5.85;;;;;;;;;;4263221;33;20262;-72
2023/05/01 05:05:06;;;;;;;21.20;5.87;;;;;;;;;;4279499;33;20069;-72
2023/05/01 05:07:32;;;;;;;13.15;6.37;;;;;;;;;;4278555;33;20082;-73
2023/05/01 05:10:01;;;;;;;13.15;5.55;;;;;;;;;;4272980;33;20043;-74
2023/05/01 05:12:27;;;;;;;13.77;5.50;;;;;;;;;;4277405;33;20045;-72
2023/05/01 05:14:54;;;;;;;16.85;6.40;;;;;;;;;;4280326;33;20148;-73
2023/05/01 05:17:21;;;;;;;15.05;5.90;;;;;;;;;;4251390;33;20462;-72
2023/05/01 05:19:48;;;;;;;15.60;6.10;;;;;;;;;;4242899;33;20109;-72
2023/05/01 05:22:14;;;;;;;16.37;5.65;;;;;;;;;;4251452;33;20037;-73
2023/05/01 05:24:43;;;;;;;16.67;6.30;;;;;;;;;;4250448;33;20045;-73
2023/05/01 05:27:11;;;;;;;20.15;5.70;;;;;;;;;;4250093;33;20045;-73
2023/05/01 05:29:37;;;;;;;10.63;6.03;;;;;;;;;;4251362;33;20180;-73
2023/05/01 05:32:04;;;;;;;12.52;5.28;;;;;;;;;;4250806;33;20458;-74
2023/05/01 05:34:31;;;;;;;11.50;5.95;;;;;;;;;;4251555;33;20092;-72
2023/05/01 05:36:59;;;;;;;21.23;6.03;;;;;;;;;;4247187;33;20111;-73
2023/05/01 05:39:25;;;;;;;11.73;6.37;;;;;;;;;;4254701;33;20045;-73
2023/05/01 05:41:52;;;;;;;12.30;5.95;;;;;;;;;;4265005;33;20497;-74
2023/05/01 05:44:19;;;;;;;12.30;5.80;;;;;;;;;;4264224;33;20133;-73
2023/05/01 05:46:46;;;;;;;11.70;5.70;;;;;;;;;;4264284;33;20083;-74
2023/05/01 05:49:13;;;;;;;12.07;5.57;;;;;;;;;;4264755;33;20059;-73
2023/05/01 05:51:40;;;;;;;16.23;5.53;;;;;;;;;;4265233;33;20054;-73
2023/05/01 05:54:13;;;;;;;19.48;6.15;;;;;;;;;;4264096;33;20062;-75
2023/05/01 05:56:40;;;;;;;19.10;6.60;;;;;;;;;;4265070;33;20046;-74
2023/05/01 05:59:12;;;;;;;25.85;6.72;;;;;;;;;;4264325;33;20090;-74
2023/05/01 06:01:39;;;;;;;14.00;5.72;;;;;;;;;;4264505;33;20046;-73
2023/05/01 06:04:05;;;;;;;15.20;5.22;;;;;;;;;;4264983;33;20476;-73
2023/05/01 06:06:33;;;;;;;10.98;4.87;;;;;;;;;;4264457;33;20053;-74
2023/05/01 06:09:00;;;;;;;16.25;5.55;;;;;;;;;;4264445;33;20067;-74
2023/05/01 06:11:26;;;;;;;12.63;4.60;;;;;;;;;;4264051;33;20067;-73
2023/05/01 06:13:53;;;;;;;13.27;4.93;;;;;;;;;;4264722;33;20077;-73
2023/05/01 06:16:19;;;;;;;9.77;4.75;;;;;;;;;;4263264;33;20068;-74
2023/05/01 06:18:46;;;;;;;14.82;6.57;;;;;;;;;;4267794;33;20075;-74
2023/05/01 06:21:12;;;;;;;12.55;5.03;;;;;;;;;;4292210;33;20108;-74
2023/05/01 06:23:38;;;;;;;8.73;3.97;;;;;;;;;;4293121;33;20549;-74
2023/05/01 06:26:16;;;;;;;12.60;6.85;;;;;;;;;;4307892;33;20371;-73
2023/05/01 06:28:42;;;;;;;17.17;5.97;;;;;;;;;;4277832;33;20050;-73
2023/05/01 06:31:09;;;;;;;20.50;5.62;;;;;;;;;;4275354;33;20071;-73
2023/05/01 06:33:37;;;;;;;9.25;4.15;;;;;;;;;;4264263;33;20093;-74
2023/05/01 06:36:03;;;;;;;11.00;4.22;;;;;;;;;;4250870;33;20033;-74
2023/05/01 06:38:31;;;;;;;10.00;4.07;;;;;;;;;;4248499;33;20057;-73
2023/05/01 06:40:58;;;;;;;13.45;4.75;;;;;;;;;;4246482;33;20082;-74
2023/05/01 06:43:29;;;;;;;10.88;4.45;;;;;;;;;;4247653;33;20075;-74
2023/05/01 06:45:56;;;;;;;9.52;4.32;;;;;;;;;;4241430;33;20103;-73
2023/05/01 06:48:28;;;;;;;8.77;4.07;;;;;;;;;;4250416;33;20093;-73
2023/05/01 06:50:55;;;;;;;10.98;4.07;;;;;;;;;;4248442;33;20034;-75
2023/05/01 06:53:21;;;;;;;11.80;4.50;;;;;;;;;;4250240;33;20073;-74
2023/05/01 06:55:47;;;;;;;17.00;4.47;;;;;;;;;;4248056;33;20061;-74
2023/05/01 06:58:13;;;;;;;11.35;3.62;;;;;;;;;;4250003;33;20478;-72
2023/05/01 07:00:39;;;;;;;15.68;4.53;;;;;;;;;;4273216;33;20037;-73
2023/05/01 07:03:06;;;;;;;8.25;3.95;;;;;;;;;;4261009;33;20064;-74
2023/05/01 07:05:32;;;;;;;9.98;3.87;;;;;;;;;;4262844;33;20049;-72
2023/05/01 07:08:00;;;;;;;6.30;3.60;;;;;;;;;;4266250;33;20057;-71
2023/05/01 07:10:32;;;;;;;11.25;3.97;;;;;;;;;;4274979;33;20042;-73
2023/05/01 07:12:58;;;;;;;5.45;2.70;;;;;;;;;;4272617;33;20564;-73
2023/05/01 07:15:24;;;;;;;6.97;3.15;;;;;;;;;;4294587;33;20037;-73
2023/05/01 07:17:51;;;;;;;8.02;3.37;;;;;;;;;;4279702;33;20917;-72
2023/05/01 07:20:17;;;;;;;9.98;4.20;;;;;;;;;;4282373;33;20075;-73
2023/05/01 07:22:44;;;;;;;13.05;2.83;;;;;;;;;;4283139;33;20239;-71
2023/05/01 07:25:10;;;;;;;11.15;3.03;;;;;;;;;;4279542;33;20053;-73
2023/05/01 07:27:36;;;;;;;9.40;2.72;;;;;;;;;;4278535;33;20079;-72
2023/05/01 07:30:04;;;;;;;8.82;3.17;;;;;;;;;;4278331;33;20108;-72
2023/05/01 07:32:30;;;;;;;4.25;2.60;;;;;;;;;;4278531;33;20132;-71
2023/05/01 07:34:57;;;;;;;7.00;3.67;;;;;;;;;;4293636;33;20806;-72
2023/05/01 07:37:25;;;;;;;10.05;3.62;;;;;;;;;;4303796;33;20066;-72
2023/05/01 07:39:51;;;;;;;8.57;2.80;;;;;;;;;;4268230;33;20038;-71
2023/05/01 07:42:18;;;;;;;4.47;2.92;;;;;;;;;;4263096;33;20093;-72
2023/05/01 07:44:44;;;;;;;4.78;2.33;;;;;;;;;;4261516;33;20056;-71
2023/05/01 07:47:10;;;;;;;5.82;3.12;;;;;;;;;;4262187;33;20057;-77
2023/05/01 07:49:37;;;;;;;6.40;2.12;;;;;;;;;;4261612;33;20059;-72
2023/05/01 07:52:07;;;;;;;6.30;2.50;;;;;;;;;;4263788;33;20080;-72
2023/05/01 07:54:33;;;;;;;5.20;2.08;;;;;;;;;;4258637;33;20041;-71
2023/05/01 07:57:00;;;;;;;4.05;2.40;;;;;;;;;;4263579;33;20061;-70
2023/05/01 07:59:27;;;;;;;6.12;2.90;;;;;;;;;;4260435;33;20042;-75
2023/05/01 08:01:53;;;;;;;5.18;2.00;;;;;;;;;;4264058;33;21011;-71
2023/05/01 08:04:21;;;;;;;9.52;4.55;;;;;;;;;;4259727;33;20101;-73
2023/05/01 08:06:50;;;;;;;5.82;3.60;;;;;;;;;;4261520;33;20050;-71
2023/05/01 08:09:16;;;;;;;9.02;3.70;;;;;;;;;;4263588;33;20228;-77
2023/05/01 08:11:43;;;;;;;6.62;2.50;;;;;;;;;;4266580;33;20069;-70
2023/05/01 08:14:09;;;;;;;9.07;2.85;;;;;;;;;;4277802;33;20062;-71
2023/05/01 08:16:35;;;;;;;3.50;2.33;;;;;;;;;;4276350;33;20341;-71
2023/05/01 08:19:03;;;;;;;6.97;2.53;;;;;;;;;;4275700;33;20045;-74
2023/05/01 08:21:38;;;;;;;6.10;3.40;;;;;;;;;;4270913;33;20199;-73
2023/05/01 08:24:07;;;;;;;10.60;2.85;;;;;;;;;;4272477;33;20063;-73
2023/05/01 08:26:40;;;;;;;4.12;2.17;;;;;;;;;;4263488;33;20112;-71
2023/05/01 08:29:06;;;;;;;4.18;2.60;;;;;;;;;;4261346;33;20075;-74
2023/05/01 08:31:36;;;;;;;4.60;2.55;;;;;;;;;;4261107;33;20053;-72
2023/05/01 08:34:02;;;;;;;3.97;2.47;;;;;;;;;;4263671;33;20061;-72
2023/05/01 08:36:31;;;;;;;5.47;2.92;;;;;;;;;;4276273;33;20258;-71
2023/05/01 08:38:57;;;;;;;2.58;2.10;;;;;;;;;;4280073;33;20152;-71
2023/05/01 08:41:24;;;;;;;6.12;3.33;;;;;;;;;;4276948;33;20482;-73
2023/05/01 08:43:50;;;;;;;14.93;3.33;;;;;;;;;;4307736;33;20703;-72
2023/05/01 08:46:20;;;;;;;5.10;2.97;;;;;;;;;;4306240;33;20387;-71
2023/05/01 08:48:47;;;;;;;5.30;2.70;;;;;;;;;;4303131;33;20494;-72
2023/05/01 08:51:16;;;;;;;4.90;2.87;;;;;;;;;;4296896;33;20542;-74
2023/05/01 08:53:42;;;;;;;10.13;3.55;;;;;;;;;;4301658;33;20413;-71
2023/05/01 08:56:10;;;;;;;6.82;3.35;;;;;;;;;;4306779;33;20052;-73
2023/05/01 08:58:36;;;;;;;7.62;3.12;;;;;;;;;;4303940;33;20038;-71
2023/05/01 09:01:02;;;;;;;6.32;2.90;;;;;;;;;;4308646;33;20363;-71
2023/05/01 09:03:30;;;;;;;4.22;2.45;;;;;;;;;;4307486;33;20060;-71
2023/05/01 09:05:58;;;;;;;4.43;2.47;;;;;;;;;;4308614;33;20194;-72
2023/05/01 09:08:24;;;;;;;14.27;3.72;;;;;;;;;;4307966;33;20064;-72
2023/05/01 09:10:51;;;;;;;10.48;3.30;;;;;;;;;;4308995;33;20056;-70
2023/05/01 09:13:17;;;;;;;15.35;3.67;;;;;;;;;;4307316;33;20072;-73
2023/05/01 09:15:44;;;;;;;8.45;3.85;;;;;;;;;;4293947;33;20109;-71
2023/05/01 09:18:10;;;;;;;4.50;2.60;;;;;;;;;;4297122;33;20061;-71
2023/05/01 09:20:37;;;;;;;6.43;2.83;;;;;;;;;;4297227;33;20437;-75
2023/05/01 09:23:03;;;;;;;7.22;2.95;;;;;;;;;;4297118;33;20044;-71
2023/05/01 09:25:30;;;;;;;4.10;3.12;;;;;;;;;;4292575;33;20395;-76
2023/05/01 09:27:56;;;;;;;5.50;2.70;;;;;;;;;;4293468;33;20054;-70
2023/05/01 09:30:29;;;;;;;18.62;4.95;;;;;;;;;;4292806;33;20038;-72
2023/05/01 09:33:05;;;;;;;5.75;3.60;;;;;;;;;;4293896;33;20049;-70
2023/05/01 09:35:32;;;;;;;6.53;3.28;;;;;;;;;;4289940;33;20044;-76
2023/05/01 09:37:58;;;;;;;6.75;3.30;;;;;;;;;;4294279;33;20282;-70
2023/05/01 09:40:27;;;;;;;6.03;3.22;;;;;;;;;;4291983;33;20049;-71
2023/05/01 09:42:55;;;;;;;6.03;3.00;;;;;;;;;;4291757;33;20049;-72
2023/05/01 09:45:22;;;;;;;10.23;2.90;;;;;;;;;;4293009;33;20070;-76
2023/05/01 09:47:48;;;;;;;8.27;2.97;;;;;;;;;;4291554;33;20240;-73
2023/05/01 09:50:31;;;;;;;5.80;2.95;;;;;;;;;;4287183;33;20057;-71
2023/05/01 09:53:00;;;;;;;5.70;3.00;;;;;;;;;;4291798;33;20410;-71
2023/05/01 09:55:26;;;;;;;7.55;3.08;;;;;;;;;;4287734;33;20045;-72
2023/05/01 09:57:52;;;;;;;4.60;2.70;;;;;;;;;;4282061;33;20121;-72
2023/05/01 10:00:20;;;;;;;6.37;3.33;;;;;;;;;;4246011;33;20045;-72
2023/05/01 10:02:47;;;;;;;4.60;2.78;;;;;;;;;;4238530;33;20084;-72
2023/05/01 10:05:14;;;;;;;7.43;3.45;;;;;;;;;;4252362;33;20059;-79
2023/05/01 10:07:54;;;;;;;5.93;3.08;;;;;;;;;;4249263;33;20035;-71
2023/05/01 10:10:21;;;;;;;7.82;2.87;;;;;;;;;;4247827;33;20474;-71
2023/05/01 10:12:47;;;;;;;11.02;3.85;;;;;;;;;;4244047;33;20043;-72
2023/05/01 10:15:14;;;;;;;3.90;2.50;;;;;;;;;;4245602;33;20128;-72
2023/05/01 10:17:42;;;;;;;8.07;3.60;;;;;;;;;;4242781;33;20041;-74
2023/05/01 10:20:10;;;;;;;6.28;3.17;;;;;;;;;;4249847;33;20660;-72
2023/05/01 10:22:36;;;;;;;7.90;2.53;;;;;;;;;;4241725;33;20034;-71
2023/05/01 10:25:03;;;;;;;5.25;2.40;;;;;;;;;;4240759;33;20058;-73
2023/05/01 10:27:29;;;;;;;5.78;2.72;;;;;;;;;;4243483;33;20089;-77
2023/05/01 10:29:56;;;;;;;4.47;2.30;;;;;;;;;;4233589;33;20042;-72
2023/05/01 10:32:22;;;;;;;4.20;2.78;;;;;;;;;;4223332;33;20046;-71
2023/05/01 10:34:53;;;;;;;8.82;3.42;;;;;;;;;;4215806;34;20054;-70
2023/05/01 10:37:33;;;;;;;6.53;3.22;;;;;;;;;;4247937;33;20103;-75
2023/05/01 10:40:01;;;;;;;3.78;2.30;;;;;;;;;;4278051;33;20056;-73
2023/05/01 10:42:27;;;;;;;11.98;3.03;;;;;;;;;;4264991;33;20409;-71
2023/05/01 10:45:13;;;;;;;8.38;3.67;;;;;;;;;;4264467;33;20079;-71
2023/05/01 10:47:41;;;;;;;6.68;2.58;;;;;;;;;;4278094;33;20631;-72
2023/05/01 10:50:16;;;;;;;5.25;2.42;;;;;;;;;;4277197;33;20051;-71
2023/05/01 10:53:01;;;;;;;4.40;2.17;;;;;;;;;;4278835;33;20025;-71
2023/05/01 10:55:34;;;;;;;4.37;2.05;;;;;;;;;;4262095;33;20184;-70
2023/05/01 10:58:00;;;;;;;7.93;2.28;;;;;;;;;;4263934;33;20075;-73
2023/05/01 11:03:23;;;;;;;5.90;3.28;;;;;;;;;;4245262;33;20068;-78
2023/05/01 11:05:59;;;;;;;8.73;3.30;;;;;;;;;;4249605;33;20122;-72
2023/05/01 11:08:28;;;;;;;12.37;3.60;;;;;;;;;;4248829;33;20030;-71
2023/05/01 11:10:54;;;;;;;3.37;2.50;;;;;;;;;;4253942;33;20172;-71
2023/05/01 11:13:39;;;;;;;3.83;2.40;;;;;;;;;;4249684;33;20065;-77
2023/05/01 11:16:35;;;;;;;4.97;3.10;;;;;;;;;;4262842;33;20116;-73
2023/05/01 11:19:01;;;;;;;6.28;2.83;;;;;;;;;;4260368;33;20940;-72
2023/05/01 11:21:32;;;;;;;6.40;3.10;;;;;;;;;;4265178;33;20050;-71
2023/05/01 11:23:58;;;;;;;12.68;3.10;;;;;;;;;;4276080;33;20067;-71
2023/05/01 11:26:26;;;;;;;7.85;2.53;;;;;;;;;;4250115;33;20056;-71
2023/05/01 11:28:53;;;;;;;6.07;2.87;;;;;;;;;;4247824;33;20096;-84
2023/05/01 11:31:19;;;;;;;6.28;2.40;;;;;;;;;;4249176;33;20057;-71
2023/05/01 11:33:45;;;;;;;2.75;2.42;;;;;;;;;;4248935;33;20105;-70
2023/05/01 11:36:13;;;;;;;3.35;2.12;;;;;;;;;;4242174;33;20579;-73
2023/05/01 11:38:51;;;;;;;7.45;2.05;;;;;;;;;;4246036;33;20059;-72
2023/05/01 11:41:25;;;;;;;3.85;2.85;;;;;;;;;;4244118;33;20076;-71
2023/05/01 11:43:55;;;;;;;3.22;2.28;;;;;;;;;;4247369;33;20064;-71
2023/05/01 11:46:32;;;;;;;4.80;2.17;;;;;;;;;;4241403;33;20091;-70
2023/05/01 11:49:00;;;;;;;5.10;3.03;;;;;;;;;;4219575;34;20314;-71
2023/05/01 11:51:27;;;;;;;5.72;1.90;;;;;;;;;;4219140;34;20305;-71
2023/05/01 11:54:03;;;;;;;3.25;2.10;;;;;;;;;;4219650;34;20128;-72
2023/05/01 11:56:30;;;;;;;5.50;2.10;;;;;;;;;;4220758;33;20412;-72
2023/05/01 11:58:57;;;;;;;4.55;2.87;;;;;;;;;;4233382;33;20034;-71
2023/05/01 12:01:33;;;;;;;5.47;2.28;;;;;;;;;;4239898;33;20368;-70
2023/05/01 12:04:00;;;;;;;4.60;2.75;;;;;;;;;;4232745;33;20093;-73
2023/05/01 12:06:43;;;;;;;3.58;2.53;;;;;;;;;;4233401;33;20042;-70
2023/05/01 12:09:10;;;;;;;10.02;2.28;;;;;;;;;;4232070;33;20050;-71
2023/05/01 12:11:37;;;;;;;2.40;2.10;;;;;;;;;;4234266;33;20454;-70
2023/05/01 12:14:03;;;;;;;4.87;2.15;;;;;;;;;;4236791;33;20215;-70
2023/05/01 12:16:30;;;;;;;5.62;2.53;;;;;;;;;;4235845;33;20441;-71
2023/05/01 12:18:56;;;;;;;5.43;2.55;;;;;;;;;;4238718;33;20427;-71
2023/05/01 12:21:24;;;;;;;7.45;1.90;;;;;;;;;;4250975;33;20044;-70
2023/05/01 12:23:50;;;;;;;9.63;2.78;;;;;;;;;;4251771;33;20079;-72
2023/05/01 12:26:17;;;;;;;2.17;1.98;;;;;;;;;;4249599;33;20072;-72
2023/05/01 12:28:52;;;;;;;6.68;2.42;;;;;;;;;;4252133;33;20256;-72
2023/05/01 12:31:19;;;;;;;4.30;1.87;;;;;;;;;;4250504;33;20050;-70
2023/05/01 12:33:55;;;;;;;5.10;2.05;;;;;;;;;;4221535;34;20058;-72
2023/05/01 12:36:26;;;;;;;3.75;2.25;;;;;;;;;;4264009;33;20442;-71
2023/05/01 12:38:56;;;;;;;6.90;2.45;;;;;;;;;;4265904;33;20108;-72
2023/05/01 12:41:40;;;;;;;2.17;1.92;;;;;;;;;;4263795;33;20525;-71
2023/05/01 12:44:22;;;;;;;2.20;1.85;;;;;;;;;;4263564;33;20085;-72
2023/05/01 12:47:00;;;;;;;5.43;2.20;;;;;;;;;;4262958;33;20421;-70
2023/05/01 12:49:26;;;;;;;8.07;2.42;;;;;;;;;;4265145;33;20443;-76
2023/05/01 12:51:54;;;;;;;7.37;2.50;;;;;;;;;;4265378;33;20463;-71
2023/05/01 12:54:23;;;;;;;7.62;2.00;;;;;;;;;;4266729;33;20124;-70
2023/05/01 12:56:52;;;;;;;9.50;2.20;;;;;;;;;;4265473;33;20030;-70
2023/05/01 12:59:25;;;;;;;10.40;1.85;;;;;;;;;;4265829;33;20138;-73
2023/05/01 13:02:04;;;;;;;2.37;2.17;;;;;;;;;;4261169;33;20053;-71
2023/05/01 13:04:31;;;;;;;3.67;1.92;;;;;;;;;;4264349;33;20061;-71
2023/05/01 13:06:57;;;;;;;6.57;2.15;;;;;;;;;;4260700;33;20091;-72
2023/05/01 13:09:25;;;;;;;2.80;1.60;;;;;;;;;;4250867;33;20050;-72
2023/05/01 13:12:10;;;;;;;5.28;2.72;;;;;;;;;;4265100;33;20065;-72
2023/05/01 13:14:40;;;;;;;5.10;2.45;;;;;;;;;;4237500;33;20057;-72
2023/05/01 13:17:07;;;;;;;8.13;2.12;;;;;;;;;;4234991;33;20038;-77
2023/05/01 13:19:33;;;;;;;3.22;2.03;;;;;;;;;;4235005;33;20081;-72
2023/05/01 13:22:00;;;;;;;6.22;1.67;;;;;;;;;;4238140;33;20058;-72
2023/05/01 13:24:37;;;;;;;8.60;2.53;;;;;;;;;;4251051;33;20038;-73
2023/05/01 13:27:05;;;;;;;4.62;2.30;;;;;;;;;;4248744;33;20097;-76
2023/05/01 13:29:31;;;;;;;6.25;2.03;;;;;;;;;;4250302;33;20049;-71
2023/05/01 13:31:57;;;;;;;2.17;1.80;;;;;;;;;;4251282;33;20068;-71
2023/05/01 13:34:26;;;;;;;2.58;2.03;;;;;;;;;;4251356;33;20129;-73
2023/05/01 13:36:53;;;;;;;11.27;2.28;;;;;;;;;;4235388;33;20034;-76
2023/05/01 13:39:19;;;;;;;4.28;1.60;;;;;;;;;;4221994;34;20035;-73
2023/05/01 13:41:46;;;;;;;4.30;2.20;;;;;;;;;;4222720;34;20853;-71
2023/05/01 13:44:12;;;;;;;4.50;1.40;;;;;;;;;;4194108;34;20486;-72
2023/05/01 13:46:41;;;;;;;5.72;2.05;;;;;;;;;;4186110;34;20086;-72
2023/05/01 13:49:07;;;;;;;3.62;1.80;;;;;;;;;;4218719;34;20129;-72
2023/05/01 13:51:36;;;;;;;7.70;1.62;;;;;;;;;;4224828;33;20514;-72
2023/05/01 13:54:02;;;;;;;2.20;1.45;;;;;;;;;;4237626;33;20306;-71
2023/05/01 13:56:31;;;;;;;3.60;1.60;;;;;;;;;;4236572;33;20050;-70
2023/05/01 13:59:00;;;;;;;1.77;1.52;;;;;;;;;;4234956;33;20473;-71
2023/05/01 14:01:26;;;;;;;4.97;1.70;;;;;;;;;;4234258;33;20050;-78
2023/05/01 14:03:59;;;;;;;1.98;1.80;;;;;;;;;;4232552;33;20046;-71
2023/05/01 14:06:27;;;;;;;4.45;1.95;;;;;;;;;;4233415;33;20458;-71
2023/05/01 14:08:56;;;;;;;1.75;1.65;;;;;;;;;;4258630;33;20122;-70
2023/05/01 14:11:22;;;;;;;2.65;1.90;;;;;;;;;;4250234;33;20084;-77
2023/05/01 14:13:49;;;;;;;2.50;1.70;;;;;;;;;;4250729;33;20050;-71
2023/05/01 14:16:23;;;;;;;7.87;2.17;;;;;;;;;;4251070;33;20084;-71
2023/05/01 14:18:53;;;;;;;7.78;2.10;;;;;;;;;;4258354;33;20037;-71
2023/05/01 14:21:21;;;;;;;3.55;1.67;;;;;;;;;;4246936;33;20089;-72
2023/05/01 14:23:47;;;;;;;3.05;1.70;;;;;;;;;;4262177;33;20120;-71
2023/05/01 14:26:17;;;;;;;4.50;1.80;;;;;;;;;;4268419;33;20442;-72
2023/05/01 14:28:45;;;;;;;2.78;1.25;;;;;;;;;;4268822;33;20520;-72
2023/05/01 14:31:15;;;;;;;1.83;1.58;;;;;;;;;;4263593;33;20112;-72
2023/05/01 14:33:45;;;;;;;4.50;1.67;;;;;;;;;;4263745;33;20046;-71
2023/05/01 14:36:13;;;;;;;2.20;1.48;;;;;;;;;;4263081;33;20041;-71
2023/05/01 14:38:40;;;;;;;5.25;1.58;;;;;;;;;;4265190;33;20053;-73
2023/05/01 14:41:10;;;;;;;1.23;1.20;;;;;;;;;;4262865;33;20031;-71
2023/05/01 14:43:39;;;;;;;5.18;1.67;;;;;;;;;;4264609;33;20099;-72
2023/05/01 14:46:05;;;;;;;8.00;2.22;;;;;;;;;;4263153;33;20059;-70
2023/05/01 14:48:35;;;;;;;11.05;1.73;;;;;;;;;;4268706;33;20116;-72
2023/05/01 14:51:09;;;;;;;2.00;1.60;;;;;;;;;;4277103;33;20159;-74
2023/05/01 14:53:36;;;;;;;2.12;1.92;;;;;;;;;;4242470;33;20086;-71
2023/05/01 14:56:02;;;;;;;9.73;2.17;;;;;;;;;;4244618;33;20079;-71
2023/05/01 14:58:28;;;;;;;2.22;1.98;;;;;;;;;;4242421;33;20470;-72
2023/05/01 15:00:56;;;;;;;4.00;1.95;;;;;;;;;;4242218;33;20365;-77
2023/05/01 15:03:22;;;;;;;3.75;1.42;;;;;;;;;;4247807;33;20171;-71
2023/05/01 15:05:48;;;;;;;5.00;1.42;;;;;;;;;;4248721;33;20071;-72
2023/05/01 15:08:14;;;;;;;7.28;1.85;;;;;;;;;;4250215;33;20100;-71
2023/05/01 15:10:41;;;;;;;8.18;1.58;;;;;;;;;;4249605;33;20478;-72
2023/05/01 15:13:07;;;;;;;1.87;1.50;;;;;;;;;;4248299;33;20039;-76
2023/05/01 15:15:34;;;;;;;2.83;1.75;;;;;;;;;;4246513;33;20111;-70
2023/05/01 15:18:01;;;;;;;2.17;1.58;;;;;;;;;;4249740;33;20254;-73
2023/05/01 15:20:27;;;;;;;3.70;1.37;;;;;;;;;;4250201;33;20087;-71
2023/05/01 15:22:53;;;;;;;3.85;1.67;;;;;;;;;;4249858;33;20035;-77
2023/05/01 15:25:19;;;;;;;3.60;1.80;;;;;;;;;;4282835;33;20152;-70
2023/05/01 15:27:46;;;;;;;6.55;1.48;;;;;;;;;;4293254;33;20438;-72
2023/05/01 15:30:13;;;;;;;3.25;1.60;;;;;;;;;;4295854;33;20057;-72
2023/05/01 15:32:39;;;;;;;3.17;1.75;;;;;;;;;;4294656;33;20083;-71
2023/05/01 15:35:05;;;;;;;5.28;1.80;;;;;;;;;;4272890;33;20912;-73
2023/05/01 15:37:31;;;;;;;3.17;1.90;;;;;;;;;;4277606;33;20049;-71
2023/05/01 15:39:58;;;;;;;6.00;1.48;;;;;;;;;;4274108;33;20406;-71
2023/05/01 15:42:24;;;;;;;3.28;1.50;;;;;;;;;;4278179;33;20069;-71
2023/05/01 15:44:51;;;;;;;3.15;1.50;;;;;;;;;;4274426;33;20096;-71
2023/05/01 15:47:17;;;;;;;7.93;1.50;;;;;;;;;;4275538;33;20033;-76
2023/05/01 15:49:43;;;;;;;4.68;1.83;;;;;;;;;;4276915;33;20065;-72
2023/05/01 15:52:10;;;;;;;2.25;1.52;;;;;;;;;;4275824;33;20045;-71
2023/05/01 15:54:36;;;;;;;3.70;1.80;;;;;;;;;;4278077;33;20055;-72
2023/05/01 15:57:02;;;;;;;5.12;1.92;;;;;;;;;;4276404;33;20049;-73
2023/05/01 15:59:29;;;;;;;1.70;1.60;;;;;;;;;;4278632;33;20388;-71
2023/05/01 16:01:55;;;;;;;2.47;1.90;;;;;;;;;;4278026;33;20045;-71
2023/05/01 16:04:22;;;;;;;5.62;1.37;;;;;;;;;;4276981;33;20079;-70
2023/05/01 16:06:48;;;;;;;9.68;2.35;;;;;;;;;;4294807;33;20061;-72
2023/05/01 16:09:14;;;;;;;7.87;2.12;;;;;;;;;;4296624;33;20457;-73
2023/05/01 16:11:40;;;;;;;3.70;1.85;;;;;;;;;;4301610;33;20048;-71
2023/05/01 16:14:07;;;;;;;4.25;1.90;;;;;;;;;;4302470;33;20062;-71
2023/05/01 16:16:33;;;;;;;3.10;1.73;;;;;;;;;;4300592;33;20049;-73
2023/05/01 16:19:00;;;;;;;1.73;1.40;;;;;;;;;;4298964;33;20057;-71
2023/05/01 16:21:27;;;;;;;2.30;1.87;;;;;;;;;;4298034;33;20106;-72
2023/05/01 16:23:56;;;;;;;3.92;2.17;;;;;;;;;;4303401;33;20053;-71
2023/05/01 16:26:24;;;;;;;7.75;1.98;;;;;;;;;;4299478;33;20082;-72
2023/05/01 16:28:56;;;;;;;5.37;1.40;;;;;;;;;;4284387;33;20406;-71
2023/05/01 16:31:23;;;;;;;3.58;1.70;;;;;;;;;;4281647;33;20188;-70
2023/05/01 16:33:52;;;;;;;4.45;1.48;;;;;;;;;;4284204;33;20167;-71
2023/05/01 16:36:18;;;;;;;5.12;1.67;;;;;;;;;;4284980;33;20110;-71
2023/05/01 16:38:45;;;;;;;11.77;1.85;;;;;;;;;;4283321;33;20115;-71
2023/05/01 16:41:15;;;;;;;11.70;1.90;;;;;;;;;;4281031;33;20076;-75
2023/05/01 16:43:42;;;;;;;13.57;1.92;;;;;;;;;;4283574;33;20291;-71
2023/05/01 16:46:08;;;;;;;2.62;1.60;;;;;;;;;;4283364;33;20078;-71